Time;durP1;ratioP1;P1;durP2;ratioP2;P2;SDS_P1;SDS_P2;PMS_P1;PMS_P2;Temp;Humidity;BMP_temperature;BMP_pressure;BME280_temperature;BME280_humidity;BME280_pressure;Samples;Min_cycle;Max_cycle;Signal;HPM_P1;HPM_P2
2022/11/24 00:01:10;;;;;;;11.02;6.25;;;5.80;99.90;;;;;;4356503;28;10000527;-74
2022/11/24 00:03:36;;;;;;;11.75;6.07;;;5.80;99.90;;;;;;5047437;28;20365;-74
2022/11/24 00:06:07;;;;;;;12.55;6.32;;;5.70;99.90;;;;;;5060706;28;20075;-75
2022/11/24 00:08:34;;;;;;;11.13;6.18;;;5.70;99.90;;;;;;5055213;28;20125;-75
2022/11/24 00:11:12;;;;;;;14.75;6.97;;;5.70;99.90;;;;;;5055110;28;20021;-75
2022/11/24 00:13:38;;;;;;;11.70;7.25;;;5.70;99.90;;;;;;5045786;28;20035;-76
2022/11/24 00:16:17;;;;;;;13.80;7.90;;;5.70;99.90;;;;;;5057336;28;20033;-75
2022/11/24 00:18:44;;;;;;;15.60;8.43;;;5.80;99.90;;;;;;5051786;28;20028;-75
2022/11/24 00:21:10;;;;;;;13.30;7.93;;;5.80;99.90;;;;;;5055004;28;20443;-76
2022/11/24 00:23:37;;;;;;;15.50;8.05;;;5.80;99.90;;;;;;5049176;28;20068;-76
2022/11/24 00:26:14;;;;;;;15.30;7.97;;;5.90;99.90;;;;;;5050086;28;20012;-75
2022/11/24 00:28:41;;;;;;;12.43;8.02;;;5.90;99.90;;;;;;5049062;28;20728;-75
2022/11/24 00:31:24;;;;;;;14.50;8.20;;;5.90;99.90;;;;;;5056320;28;20111;-75
2022/11/24 00:33:52;;;;;;;11.75;7.25;;;5.90;99.90;;;;;;5047884;28;20089;-76
2022/11/24 00:36:19;;;;;;;16.42;7.88;;;5.90;99.90;;;;;;5052677;28;20116;-75
2022/11/24 00:38:46;;;;;;;14.60;7.78;;;5.90;99.90;;;;;;5048010;28;20024;-75
2022/11/24 00:41:12;;;;;;;17.10;8.20;;;6.00;99.90;;;;;;5059440;28;20032;-75
2022/11/24 00:43:38;;;;;;;13.18;7.75;;;6.00;99.90;;;;;;5053174;28;20029;-75
2022/11/24 00:46:04;;;;;;;18.13;8.27;;;6.00;99.90;;;;;;5053892;28;20032;-75
2022/11/24 00:48:30;;;;;;;12.32;7.68;;;6.00;99.90;;;;;;5050769;28;20025;-74
2022/11/24 00:51:05;;;;;;;18.98;8.23;;;6.00;99.90;;;;;;5045690;28;20029;-75
2022/11/24 00:53:31;;;;;;;18.65;8.15;;;6.00;99.90;;;;;;5054606;28;20035;-75
2022/11/24 00:55:57;;;;;;;15.13;8.85;;;6.10;99.90;;;;;;5051401;28;20024;-75
2022/11/24 00:58:24;;;;;;;14.32;8.93;;;6.10;99.90;;;;;;5058315;28;20663;-75
2022/11/24 01:00:50;;;;;;;18.45;9.02;;;6.10;99.90;;;;;;5054687;28;20032;-74
2022/11/24 01:03:17;;;;;;;15.90;9.15;;;6.10;99.90;;;;;;5055449;28;20052;-75
2022/11/24 01:05:43;;;;;;;17.48;8.75;;;6.10;99.90;;;;;;5053529;28;20068;-75
2022/11/24 01:08:09;;;;;;;19.13;8.60;;;6.10;99.90;;;;;;5056497;28;20052;-75
2022/11/24 01:10:35;;;;;;;15.80;9.00;;;6.10;99.90;;;;;;5055965;28;20017;-74
2022/11/24 01:13:00;;;;;;;16.10;8.07;;;6.20;99.90;;;;;;5051162;28;20166;-75
2022/11/24 01:15:26;;;;;;;18.33;8.57;;;6.20;99.90;;;;;;5060111;28;20115;-75
2022/11/24 01:17:52;;;;;;;17.65;9.05;;;6.20;99.90;;;;;;5053045;28;20025;-75
2022/11/24 01:20:18;;;;;;;17.00;7.93;;;6.20;99.90;;;;;;5062017;28;20480;-75
2022/11/24 01:22:43;;;;;;;18.75;8.10;;;6.20;99.90;;;;;;5051913;28;20099;-75
2022/11/24 01:25:10;;;;;;;16.38;8.18;;;6.20;99.90;;;;;;5045910;28;20033;-75
2022/11/24 01:27:37;;;;;;;18.58;8.40;;;6.20;99.90;;;;;;5055441;28;20032;-75
2022/11/24 01:30:04;;;;;;;16.00;9.60;;;6.20;99.90;;;;;;5060543;28;20020;-75
2022/11/24 01:32:32;;;;;;;17.95;9.05;;;6.20;99.90;;;;;;5049261;28;20098;-75
2022/11/24 01:35:07;;;;;;;22.42;9.23;;;6.20;99.90;;;;;;5051999;28;20028;-75
2022/11/24 01:37:32;;;;;;;20.23;9.38;;;6.20;99.90;;;;;;5051872;28;20028;-75
2022/11/24 01:39:58;;;;;;;17.60;9.82;;;6.20;99.90;;;;;;5057585;28;20028;-75
2022/11/24 01:42:24;;;;;;;14.90;8.93;;;6.20;99.90;;;;;;5059539;28;20029;-75
2022/11/24 01:45:41;;;;;;;17.38;8.52;;;6.20;99.90;;;;;;5055146;28;20027;-75
2022/11/24 01:48:16;;;;;;;20.70;9.07;;;6.20;99.90;;;;;;5002769;28;20041;-75
2022/11/24 01:50:43;;;;;;;15.15;7.65;;;6.30;99.90;;;;;;5057365;28;20391;-75
2022/11/24 01:53:10;;;;;;;19.00;8.50;;;6.30;99.90;;;;;;5057217;28;20029;-75
2022/11/24 01:55:38;;;;;;;18.17;8.50;;;6.30;99.90;;;;;;5045417;28;20090;-75
2022/11/24 01:58:22;;;;;;;20.35;7.97;;;6.30;99.90;;;;;;5051865;28;20051;-75
2022/11/24 02:00:48;;;;;;;21.67;7.93;;;6.30;99.90;;;;;;5061392;28;20032;-75
2022/11/24 02:03:18;;;;;;;17.70;7.90;;;6.30;99.90;;;;;;5056052;28;20089;-75
2022/11/24 02:06:07;;;;;;;15.63;7.85;;;6.30;99.90;;;;;;5056617;28;20032;-75
2022/11/24 02:08:38;;;;;;;21.50;8.95;;;6.30;99.90;;;;;;5059346;28;20024;-75
2022/11/24 02:11:05;;;;;;;19.90;7.68;;;6.40;99.90;;;;;;5048346;28;20567;-75
2022/11/24 02:13:34;;;;;;;14.90;7.63;;;6.40;99.90;;;;;;5041558;28;20024;-75
2022/11/24 02:16:00;;;;;;;15.00;6.95;;;6.40;99.90;;;;;;5051269;28;20447;-74
2022/11/24 02:18:26;;;;;;;17.83;7.20;;;6.30;99.90;;;;;;5049534;28;20454;-75
2022/11/24 02:20:51;;;;;;;19.13;7.55;;;6.30;99.90;;;;;;5052065;28;20044;-75
2022/11/24 02:23:34;;;;;;;21.98;7.18;;;6.30;99.90;;;;;;5046478;28;20384;-74
2022/11/24 02:26:03;;;;;;;14.80;7.18;;;6.30;99.90;;;;;;5049334;28;20036;-75
2022/11/24 02:28:29;;;;;;;16.80;7.32;;;6.30;99.90;;;;;;5046515;28;20024;-75
2022/11/24 02:30:57;;;;;;;19.27;7.10;;;6.30;99.90;;;;;;5052551;28;20041;-76
2022/11/24 02:33:24;;;;;;;17.00;7.10;;;6.30;99.90;;;;;;5047834;28;20485;-76
2022/11/24 02:35:50;;;;;;;22.20;7.20;;;6.30;99.90;;;;;;5057203;28;20032;-76
2022/11/24 02:38:16;;;;;;;18.45;7.13;;;6.30;99.90;;;;;;5053336;28;20032;-75
2022/11/24 02:40:45;;;;;;;13.90;6.47;;;6.30;99.90;;;;;;5045761;28;20035;-76
2022/11/24 02:43:16;;;;;;;21.10;7.28;;;6.30;99.90;;;;;;5046028;28;20037;-76
2022/11/24 02:45:41;;;;;;;19.88;6.30;;;6.30;99.90;;;;;;5058918;28;20103;-75
2022/11/24 02:48:07;;;;;;;19.05;6.63;;;6.30;99.90;;;;;;5053905;28;20696;-75
2022/11/24 02:50:33;;;;;;;18.85;6.55;;;6.30;99.90;;;;;;5051429;28;20049;-75
2022/11/24 02:52:58;;;;;;;14.82;6.00;;;6.30;99.90;;;;;;5052027;28;20119;-76
2022/11/24 02:55:24;;;;;;;19.08;6.78;;;6.30;99.90;;;;;;5052771;28;20032;-76
2022/11/24 02:57:50;;;;;;;23.35;6.25;;;6.30;99.90;;;;;;5053399;28;20461;-75
2022/11/24 03:00:16;;;;;;;22.10;6.22;;;6.20;99.90;;;;;;5050176;28;20037;-75
2022/11/24 03:02:41;;;;;;;14.95;6.32;;;6.20;99.90;;;;;;5039530;28;20219;-76
2022/11/24 03:05:08;;;;;;;16.70;6.50;;;6.20;99.90;;;;;;5054493;28;20032;-75
2022/11/24 03:07:33;;;;;;;15.00;6.47;;;6.20;99.90;;;;;;5064643;28;20391;-75
2022/11/24 03:09:59;;;;;;;20.17;6.68;;;6.30;99.90;;;;;;5058032;28;20792;-75
2022/11/24 03:12:25;;;;;;;13.82;6.15;;;6.30;99.90;;;;;;5053730;28;20036;-75
2022/11/24 03:14:50;;;;;;;18.15;7.32;;;6.30;99.90;;;;;;5054327;28;20400;-75
2022/11/24 03:17:16;;;;;;;18.25;6.25;;;6.20;99.90;;;;;;5050582;28;20393;-76
2022/11/24 03:19:42;;;;;;;18.30;6.28;;;6.30;99.90;;;;;;5060172;28;20028;-75
2022/11/24 03:22:07;;;;;;;22.08;6.80;;;6.30;99.90;;;;;;5053506;28;20044;-75
2022/11/24 03:24:33;;;;;;;18.83;6.47;;;6.30;99.90;;;;;;5063245;28;20473;-75
2022/11/24 03:26:58;;;;;;;23.92;7.35;;;6.20;99.90;;;;;;5050857;28;20025;-75
2022/11/24 03:29:24;;;;;;;21.85;7.15;;;6.30;99.90;;;;;;5052688;28;20692;-75
2022/11/24 03:31:50;;;;;;;16.38;6.45;;;6.20;99.90;;;;;;5056052;28;20126;-75
2022/11/24 03:34:15;;;;;;;15.75;6.35;;;6.20;99.90;;;;;;5049218;28;20397;-75
2022/11/24 03:36:41;;;;;;;15.30;5.70;;;6.20;99.90;;;;;;5052601;28;20149;-75
2022/11/24 03:39:07;;;;;;;13.13;5.45;;;6.10;99.90;;;;;;5055518;28;20029;-75
2022/11/24 03:41:32;;;;;;;19.20;6.30;;;6.10;99.90;;;;;;5058702;28;20028;-76
2022/11/24 03:43:58;;;;;;;14.73;6.07;;;6.10;99.90;;;;;;5051422;28;20036;-75
2022/11/24 03:46:23;;;;;;;16.02;6.28;;;6.00;99.90;;;;;;5049323;28;20357;-75
2022/11/24 03:48:49;;;;;;;18.60;6.70;;;6.00;99.90;;;;;;5052750;28;20106;-75
2022/11/24 03:51:14;;;;;;;22.33;6.97;;;6.00;99.90;;;;;;5057209;28;20078;-76
2022/11/24 03:53:40;;;;;;;18.50;6.55;;;6.00;99.90;;;;;;5050416;28;20451;-76
2022/11/24 03:56:06;;;;;;;20.15;6.78;;;6.00;99.90;;;;;;5053908;28;20032;-75
2022/11/24 03:58:32;;;;;;;18.65;6.75;;;6.00;99.90;;;;;;5055732;28;20025;-75
2022/11/24 04:00:58;;;;;;;18.25;7.13;;;6.00;99.90;;;;;;5048492;28;20025;-75
2022/11/24 04:03:24;;;;;;;23.70;6.95;;;6.00;99.90;;;;;;5051361;28;20415;-74
2022/11/24 04:05:50;;;;;;;18.90;6.57;;;6.00;99.90;;;;;;5055833;28;20036;-76
2022/11/24 04:08:16;;;;;;;18.42;7.03;;;6.00;99.90;;;;;;5048291;28;20527;-76
2022/11/24 04:10:42;;;;;;;17.50;6.75;;;6.00;99.90;;;;;;5060413;28;20040;-75
2022/11/24 04:13:14;;;;;;;16.88;6.47;;;6.00;99.90;;;;;;5057183;28;20169;-76
2022/11/24 04:15:40;;;;;;;23.17;7.50;;;6.00;99.90;;;;;;5058975;28;20025;-76
2022/11/24 04:18:08;;;;;;;25.85;7.72;;;6.00;99.90;;;;;;5060336;28;20527;-75
2022/11/24 04:20:34;;;;;;;25.33;8.40;;;6.00;99.90;;;;;;5054355;28;20037;-75
2022/11/24 04:23:00;;;;;;;24.33;8.07;;;6.00;99.90;;;;;;5056267;28;20036;-75
2022/11/24 04:25:26;;;;;;;22.63;7.47;;;6.00;99.90;;;;;;5056968;28;20020;-75
2022/11/24 04:27:53;;;;;;;26.60;8.75;;;6.00;99.90;;;;;;5052791;28;20028;-75
2022/11/24 04:30:19;;;;;;;24.20;8.40;;;6.00;99.90;;;;;;5048142;28;20117;-75
2022/11/24 04:32:45;;;;;;;19.80;7.70;;;5.90;99.90;;;;;;5031101;28;20041;-75
2022/11/24 04:35:11;;;;;;;21.98;8.38;;;5.90;99.90;;;;;;5030832;28;20034;-75
2022/11/24 04:37:37;;;;;;;27.00;8.88;;;6.00;99.90;;;;;;5030622;28;20138;-76
2022/11/24 04:40:04;;;;;;;24.38;8.73;;;6.00;99.90;;;;;;5039772;28;20040;-74
2022/11/24 04:42:30;;;;;;;21.77;8.15;;;6.00;99.90;;;;;;5027666;28;20107;-76
2022/11/24 04:44:55;;;;;;;21.83;8.40;;;6.00;99.90;;;;;;5039244;28;20081;-76
2022/11/24 04:47:23;;;;;;;20.58;8.57;;;6.10;99.90;;;;;;5033701;28;20298;-76
2022/11/24 04:49:49;;;;;;;20.27;8.52;;;6.10;99.90;;;;;;5035276;28;20075;-76
2022/11/24 04:52:17;;;;;;;26.30;8.65;;;6.10;99.90;;;;;;5032410;28;20036;-76
2022/11/24 04:54:42;;;;;;;24.58;8.57;;;6.10;99.90;;;;;;5035103;28;20111;-76
2022/11/24 04:57:18;;;;;;;22.73;9.27;;;6.20;99.90;;;;;;5041969;28;20484;-75
2022/11/24 04:59:44;;;;;;;28.17;9.15;;;6.20;99.90;;;;;;5031768;28;20041;-76
2022/11/24 05:02:10;;;;;;;23.50;8.88;;;6.20;99.90;;;;;;5030298;28;20029;-76
2022/11/24 05:04:36;;;;;;;23.85;7.97;;;6.20;99.90;;;;;;5029375;28;20116;-75
2022/11/24 05:07:01;;;;;;;20.58;8.55;;;6.20;99.90;;;;;;5027150;28;20032;-76
2022/11/24 05:09:27;;;;;;;21.92;8.20;;;6.20;99.90;;;;;;5033612;28;20029;-75
2022/11/24 05:11:53;;;;;;;24.83;8.50;;;6.20;99.90;;;;;;5024933;28;20033;-75
2022/11/24 05:14:18;;;;;;;20.05;8.20;;;6.20;99.90;;;;;;5027716;28;20067;-76
2022/11/24 05:16:44;;;;;;;21.67;8.20;;;6.20;99.90;;;;;;5032712;28;20032;-75
2022/11/24 05:19:10;;;;;;;24.15;8.82;;;6.20;99.90;;;;;;5030948;28;20033;-76
2022/11/24 05:21:35;;;;;;;22.42;8.02;;;6.20;99.90;;;;;;5030314;28;20591;-76
2022/11/24 05:24:01;;;;;;;26.98;8.63;;;6.10;99.90;;;;;;5029116;28;20033;-75
2022/11/24 05:26:27;;;;;;;26.13;8.23;;;6.10;99.90;;;;;;5026948;28;20033;-75
2022/11/24 05:28:52;;;;;;;27.20;8.57;;;6.20;99.90;;;;;;5032150;28;20022;-76
2022/11/24 05:31:18;;;;;;;27.90;8.85;;;6.10;99.90;;;;;;5037026;28;20045;-75
2022/11/24 05:33:44;;;;;;;28.52;8.95;;;6.10;99.90;;;;;;5044387;28;20552;-76
2022/11/24 05:36:52;;;;;;;28.60;8.57;;;6.10;99.90;;;;;;5037395;28;20735;-75
2022/11/24 05:38:59;;;;;;;23.60;8.02;;;6.10;99.90;;;;;;5043301;28;20037;-75
2022/11/24 05:41:25;;;;;;;30.13;8.18;;;6.10;99.90;;;;;;5044638;28;20048;-75
2022/11/24 05:43:51;;;;;;;28.50;9.45;;;6.10;99.90;;;;;;5056566;28;20035;-75
2022/11/24 05:46:17;;;;;;;26.52;8.65;;;6.10;99.90;;;;;;5049533;28;20020;-75
2022/11/24 05:48:42;;;;;;;26.35;8.40;;;6.00;99.90;;;;;;5051155;28;20032;-75
2022/11/24 05:51:08;;;;;;;27.70;8.18;;;6.00;99.90;;;;;;5056712;28;20060;-75
2022/11/24 05:53:33;;;;;;;23.58;8.13;;;6.00;99.90;;;;;;5050948;28;20123;-75
2022/11/24 05:56:05;;;;;;;24.70;8.20;;;6.00;99.90;;;;;;5051475;28;20172;-75
2022/11/24 05:58:30;;;;;;;27.23;8.27;;;5.90;99.90;;;;;;5050840;28;20453;-75
2022/11/24 06:00:56;;;;;;;27.85;8.18;;;5.80;99.90;;;;;;5059378;28;20036;-75
2022/11/24 06:03:22;;;;;;;21.88;7.55;;;5.80;99.90;;;;;;5053961;28;20035;-75
2022/11/24 06:05:48;;;;;;;22.48;7.50;;;5.70;99.90;;;;;;5047020;28;20075;-75
2022/11/24 06:08:13;;;;;;;17.55;7.20;;;5.70;99.90;;;;;;5047465;28;20060;-75
2022/11/24 06:10:39;;;;;;;19.50;7.25;;;5.70;99.90;;;;;;5048337;28;20393;-75
2022/11/24 06:13:06;;;;;;;28.17;8.52;;;5.60;99.90;;;;;;5048167;28;20468;-75
2022/11/24 06:15:36;;;;;;;28.17;8.07;;;5.60;99.90;;;;;;5042534;28;20033;-75
2022/11/24 06:18:02;;;;;;;23.40;8.13;;;5.60;99.90;;;;;;5043423;28;20037;-75
2022/11/24 06:20:28;;;;;;;19.38;7.88;;;5.70;99.90;;;;;;5052369;28;20034;-75
2022/11/24 06:22:57;;;;;;;21.75;7.65;;;5.60;99.90;;;;;;5050932;28;20028;-75
2022/11/24 06:25:22;;;;;;;26.27;8.32;;;5.60;99.90;;;;;;5051815;28;20021;-75
2022/11/24 06:27:48;;;;;;;30.25;8.07;;;5.70;99.90;;;;;;5058429;28;20078;-76
2022/11/24 06:30:14;;;;;;;31.02;8.95;;;5.70;99.90;;;;;;5050124;28;20029;-75
2022/11/24 06:32:43;;;;;;;32.88;9.27;;;;;;;;;;5056798;28;20045;-76
2022/11/24 06:35:10;;;;;;;28.83;9.05;;;5.70;99.90;;;;;;5058373;28;20250;-75
2022/11/24 06:37:36;;;;;;;29.80;8.75;;;5.70;99.90;;;;;;5058176;28;20049;-75
2022/11/24 06:40:02;;;;;;;30.52;9.20;;;5.80;99.90;;;;;;5050107;28;20155;-75
2022/11/24 06:42:28;;;;;;;32.75;8.52;;;5.80;99.90;;;;;;5062459;28;20048;-75
2022/11/24 06:44:53;;;;;;;26.88;7.82;;;5.80;99.90;;;;;;5058641;28;20056;-75
2022/11/24 06:47:19;;;;;;;22.70;7.70;;;5.80;99.90;;;;;;5051217;28;20029;-75
2022/11/24 06:49:44;;;;;;;28.70;8.88;;;5.80;99.90;;;;;;5052891;28;20028;-75
2022/11/24 06:52:10;;;;;;;39.75;19.77;;;5.80;99.90;;;;;;5053308;28;20032;-75
2022/11/24 06:54:36;;;;;;;38.35;15.55;;;5.80;99.90;;;;;;5056667;28;20030;-75
2022/11/24 06:57:01;;;;;;;35.30;13.07;;;5.80;99.90;;;;;;5060285;28;20480;-75
2022/11/24 06:59:27;;;;;;;21.45;11.23;;;5.80;99.90;;;;;;5058490;28;20082;-75
2022/11/24 07:01:53;;;;;;;43.65;18.27;;;5.80;99.90;;;;;;5054934;28;20052;-75
2022/11/24 07:04:19;;;;;;;47.85;20.65;;;5.90;99.90;;;;;;5048843;28;20385;-73
2022/11/24 07:06:44;;;;;;;53.50;23.08;;;5.90;99.90;;;;;;5057858;28;20029;-75
2022/11/24 07:09:12;;;;;;;54.85;22.30;;;5.90;99.90;;;;;;5052874;28;20059;-76
2022/11/24 07:11:39;;;;;;;42.80;18.00;;;5.90;99.90;;;;;;5057937;28;20025;-75
2022/11/24 07:14:05;;;;;;;31.88;12.55;;;5.90;99.90;;;;;;5062342;28;20250;-75
2022/11/24 07:16:31;;;;;;;28.45;11.80;;;6.00;99.90;;;;;;5048673;28;20040;-75
2022/11/24 07:18:57;;;;;;;35.65;11.02;;;6.00;99.90;;;;;;5067070;28;20032;-75
2022/11/24 07:21:24;;;;;;;39.97;13.88;;;6.00;99.90;;;;;;5056652;28;20025;-75
2022/11/24 07:23:52;;;;;;;41.60;13.77;;;6.10;99.90;;;;;;5052110;28;20480;-75
2022/11/24 07:26:18;;;;;;;42.30;17.45;;;6.10;99.90;;;;;;5049217;28;20102;-75
2022/11/24 07:28:44;;;;;;;29.77;13.23;;;6.10;99.90;;;;;;5048993;28;20637;-75
2022/11/24 07:31:14;;;;;;;34.25;12.25;;;6.20;99.90;;;;;;5042268;28;20032;-75
2022/11/24 07:33:40;;;;;;;52.35;12.15;;;6.20;99.90;;;;;;5051681;28;20086;-75
2022/11/24 07:36:07;;;;;;;34.45;11.90;;;6.30;99.90;;;;;;5056804;28;20028;-75
2022/11/24 07:38:34;;;;;;;33.78;10.68;;;6.30;99.90;;;;;;5048851;28;20048;-75
2022/11/24 07:41:04;;;;;;;30.77;10.07;;;6.30;99.90;;;;;;5054074;28;20039;-76
2022/11/24 07:43:34;;;;;;;25.23;9.23;;;6.30;99.90;;;;;;5057795;28;20039;-75
2022/11/24 07:46:00;;;;;;;32.22;10.25;;;6.40;99.90;;;;;;5048289;28;20016;-76
2022/11/24 07:48:25;;;;;;;23.05;8.35;;;6.40;99.90;;;;;;5063177;28;20026;-75
2022/11/24 07:50:51;;;;;;;28.83;8.50;;;6.40;99.90;;;;;;5063386;28;20102;-75
2022/11/24 07:53:17;;;;;;;33.28;10.38;;;6.40;99.90;;;;;;5059540;28;20040;-75
2022/11/24 07:55:43;;;;;;;34.67;9.52;;;6.50;99.90;;;;;;5057985;28;20032;-75
2022/11/24 07:58:08;;;;;;;32.58;9.30;;;6.50;99.90;;;;;;5052598;28;20064;-75
2022/11/24 08:00:34;;;;;;;27.45;9.30;;;6.50;99.90;;;;;;5062010;28;20029;-75
2022/11/24 08:03:00;;;;;;;36.15;11.75;;;6.50;99.90;;;;;;5054785;28;20063;-75
2022/11/24 08:05:25;;;;;;;41.40;12.95;;;6.60;99.90;;;;;;5062813;28;20414;-75
2022/11/24 08:07:51;;;;;;;31.38;8.73;;;6.60;99.90;;;;;;5065726;28;20457;-75
2022/11/24 08:10:16;;;;;;;40.20;14.98;;;6.60;99.90;;;;;;5056467;28;20029;-75
2022/11/24 08:12:42;;;;;;;42.67;16.38;;;6.60;99.90;;;;;;5046489;28;20503;-75
2022/11/24 08:15:08;;;;;;;33.22;13.27;;;6.60;99.90;;;;;;5062904;28;20520;-74
2022/11/24 08:17:34;;;;;;;34.88;12.80;;;6.70;99.90;;;;;;5050972;28;20029;-75
2022/11/24 08:20:00;;;;;;;40.55;17.30;;;6.70;99.90;;;;;;5056827;28;20472;-76
2022/11/24 08:22:26;;;;;;;46.22;15.95;;;6.70;99.90;;;;;;4697902;28;10000437;-74
2022/11/24 08:24:51;;;;;;;47.30;16.60;;;6.80;99.90;;;;;;5063512;28;20033;-74
2022/11/24 08:27:18;;;;;;;36.85;11.52;;;6.80;99.90;;;;;;5056822;28;20025;-74
2022/11/24 08:29:44;;;;;;;29.08;9.02;;;6.80;99.90;;;;;;5059404;28;20370;-73
2022/11/24 08:32:11;;;;;;;27.55;9.43;;;6.80;99.90;;;;;;5052431;28;20048;-73
2022/11/24 08:34:37;;;;;;;24.98;7.38;;;6.80;99.90;;;;;;5065022;28;20598;-73
2022/11/24 08:37:04;;;;;;;30.35;8.65;;;6.80;99.90;;;;;;5063954;28;20043;-74
2022/11/24 08:39:30;;;;;;;24.67;7.00;;;;;;;;;;5055350;28;20036;-73
2022/11/24 08:41:55;;;;;;;28.15;9.70;;;6.90;99.90;;;;;;5051744;28;20033;-73
2022/11/24 08:44:21;;;;;;;31.10;8.02;;;6.90;99.90;;;;;;5060447;28;20102;-74
2022/11/24 08:46:48;;;;;;;31.42;12.45;;;6.90;99.90;;;;;;5064895;28;20020;-74
2022/11/24 08:49:13;;;;;;;26.77;7.00;;;6.90;99.90;;;;;;5048954;28;20029;-74
2022/11/24 08:51:40;;;;;;;26.42;6.85;;;7.00;99.90;;;;;;5053736;28;20029;-74
2022/11/24 08:54:06;;;;;;;29.42;7.28;;;7.00;99.90;;;;;;5051416;28;20028;-73
2022/11/24 08:56:32;;;;;;;24.45;6.95;;;7.00;99.90;;;;;;5061221;28;20032;-74
2022/11/24 08:58:58;;;;;;;22.55;6.82;;;7.00;99.90;;;;;;5061403;28;20542;-73
2022/11/24 09:01:25;;;;;;;31.48;7.80;;;7.10;99.90;;;;;;5056881;28;20044;-74
2022/11/24 09:03:51;;;;;;;25.48;7.55;;;7.10;99.90;;;;;;5060378;28;20038;-73
2022/11/24 09:06:29;;;;;;;31.58;8.10;;;7.10;99.90;;;;;;5055640;28;20032;-73
2022/11/24 09:08:55;;;;;;;25.05;7.72;;;7.20;99.90;;;;;;5050934;28;20102;-73
2022/11/24 09:11:21;;;;;;;35.97;8.45;;;7.20;99.90;;;;;;5050670;28;20503;-73
2022/11/24 09:13:46;;;;;;;31.73;9.75;;;7.20;99.90;;;;;;5057002;28;20036;-73
2022/11/24 09:16:15;;;;;;;33.60;8.95;;;7.30;99.90;;;;;;5057570;28;20037;-73
2022/11/24 09:18:41;;;;;;;28.17;9.65;;;7.30;99.90;;;;;;5047577;28;20031;-73
2022/11/24 09:21:08;;;;;;;37.95;13.65;;;;;;;;;;5045000;28;20082;-74
2022/11/24 09:23:34;;;;;;;42.75;15.98;;;;;;;;;;5056606;28;20562;-73
2022/11/24 09:26:07;;;;;;;32.72;11.73;;;;;;;;;;5058936;28;20020;-73
2022/11/24 09:28:34;;;;;;;33.03;12.48;;;;;;;;;;5058182;28;20500;-73
2022/11/24 09:31:01;;;;;;;35.35;11.63;;;;;;;;;;5055835;28;20033;-74
2022/11/24 09:33:27;;;;;;;36.60;11.20;;;7.70;99.90;;;;;;5056947;28;20485;-74
2022/11/24 09:35:52;;;;;;;26.52;7.97;;;7.70;99.90;;;;;;5058318;28;20024;-73
2022/11/24 09:38:19;;;;;;;30.40;9.05;;;7.70;99.90;;;;;;5062689;28;20032;-73
2022/11/24 09:40:44;;;;;;;30.23;10.75;;;7.70;99.90;;;;;;5054445;28;20122;-73
2022/11/24 09:43:44;;;;;;;31.85;10.23;;;7.60;99.90;;;;;;5053295;28;20131;-74
2022/11/24 09:46:24;;;;;;;28.92;9.05;;;7.60;99.90;;;;;;5059755;28;20027;-73
2022/11/24 09:48:54;;;;;;;35.70;10.15;;;7.60;99.90;;;;;;5047027;28;20046;-73
2022/11/24 09:51:24;;;;;;;31.92;8.98;;;7.60;99.90;;;;;;5055213;28;20059;-74
2022/11/24 09:53:52;;;;;;;30.55;7.90;;;7.60;99.90;;;;;;5048399;28;20033;-74
2022/11/24 09:56:27;;;;;;;35.03;11.55;;;7.60;99.90;;;;;;5060000;28;20025;-73
2022/11/24 09:59:09;;;;;;;32.75;12.05;;;7.60;99.90;;;;;;5057336;28;20033;-74
2022/11/24 10:01:38;;;;;;;32.60;10.77;;;7.70;99.90;;;;;;5051998;28;20025;-74
2022/11/24 10:04:14;;;;;;;31.45;10.30;;;7.70;99.90;;;;;;5056631;28;20039;-73
2022/11/24 10:06:54;;;;;;;29.92;11.07;;;7.80;99.90;;;;;;5056635;28;20021;-73
2022/11/24 10:09:25;;;;;;;26.65;10.70;;;7.80;99.90;;;;;;5056710;28;20391;-74
2022/11/24 10:12:03;;;;;;;30.70;9.80;;;7.90;99.90;;;;;;5050213;28;20020;-73
2022/11/24 10:14:44;;;;;;;39.47;11.52;;;8.00;99.90;;;;;;5048882;28;20111;-73
2022/11/24 10:17:12;;;;;;;30.20;11.48;;;8.00;99.90;;;;;;5058763;28;20123;-73
2022/11/24 10:19:47;;;;;;;38.13;11.68;;;8.00;99.90;;;;;;5049329;28;20020;-74
2022/11/24 10:22:42;;;;;;;36.72;12.65;;;8.10;99.90;;;;;;5055048;28;20120;-73
2022/11/24 10:25:16;;;;;;;40.08;10.65;;;8.20;99.90;;;;;;5058338;28;20051;-73
2022/11/24 10:28:01;;;;;;;31.67;9.20;;;8.30;99.90;;;;;;5053897;28;20258;-73
2022/11/24 10:30:28;;;;;;;29.90;7.93;;;8.40;99.90;;;;;;5055868;28;20057;-74
2022/11/24 10:33:01;;;;;;;33.90;14.15;;;8.50;99.90;;;;;;5049691;28;20044;-73
2022/11/24 10:35:41;;;;;;;28.92;12.65;;;8.60;99.90;;;;;;5046154;28;20033;-73
2022/11/24 10:38:19;;;;;;;36.95;13.98;;;8.60;99.90;;;;;;5061204;28;20107;-77
2022/11/24 10:40:48;;;;;;;31.15;9.30;;;;;;;;;;5057860;28;20415;-79
2022/11/24 10:43:14;;;;;;;23.77;7.35;;;;;;;;;;5051578;28;20115;-75
2022/11/24 10:45:40;;;;;;;20.27;5.28;;;8.80;99.90;;;;;;5043694;28;20407;-74
2022/11/24 10:48:20;;;;;;;19.83;5.57;;;8.90;99.90;;;;;;5052596;28;20032;-73
2022/11/24 10:50:45;;;;;;;19.55;4.80;;;9.00;99.90;;;;;;5051849;28;20075;-74
2022/11/24 10:53:26;;;;;;;22.48;5.63;;;9.00;99.90;;;;;;5053315;28;20799;-73
2022/11/24 10:55:55;;;;;;;18.52;5.43;;;;;;;;;;5054425;28;20020;-72
2022/11/24 10:58:28;;;;;;;14.85;4.57;;;;;;;;;;5062983;28;20618;-72
2022/11/24 11:00:55;;;;;;;12.00;3.95;;;;;;;;;;5064565;28;20020;-72
2022/11/24 11:03:25;;;;;;;16.48;3.50;;;;;;;;;;5053278;28;20051;-71
2022/11/24 11:05:55;;;;;;;12.30;3.40;;;9.70;99.90;;;;;;5047975;28;20676;-73
2022/11/24 11:08:27;;;;;;;18.00;4.07;;;9.70;99.90;;;;;;5057274;28;20702;-72
2022/11/24 11:11:13;;;;;;;12.43;3.22;;;9.50;99.90;;;;;;5050640;28;20047;-72
2022/11/24 11:13:54;;;;;;;11.98;3.53;;;9.60;99.90;;;;;;5061398;28;20492;-72
2022/11/24 11:16:40;;;;;;;14.45;3.78;;;9.60;99.90;;;;;;5063103;28;20480;-73
2022/11/24 11:19:25;;;;;;;13.75;3.95;;;9.70;99.90;;;;;;5057017;28;20033;-74
2022/11/24 11:22:08;;;;;;;14.43;3.33;;;9.80;99.90;;;;;;5045386;28;20083;-75
2022/11/24 11:24:35;;;;;;;11.27;2.78;;;;;;;;;;5052811;28;20035;-74
2022/11/24 11:27:02;;;;;;;11.10;2.80;;;;;;;;;;5049379;28;20534;-74
2022/11/24 11:29:29;;;;;;;6.53;2.00;;;;;;;;;;5039741;28;20099;-75
2022/11/24 11:31:56;;;;;;;9.00;2.22;;;;;;;;;;5051653;28;20040;-74
2022/11/24 11:34:22;;;;;;;11.00;2.28;;;;;;;;;;5049705;28;20028;-74
2022/11/24 11:36:50;;;;;;;9.75;2.20;;;;;;;;;;5047352;28;20029;-74
2022/11/24 11:39:31;;;;;;;13.60;2.58;;;;;;;;;;5051771;28;20028;-74
2022/11/24 11:42:02;;;;;;;10.50;1.90;;;;;;;;;;5048348;28;20086;-73
2022/11/24 11:44:37;;;;;;;6.68;1.73;;;;;;;;;;5043528;28;20041;-73
2022/11/24 11:47:14;;;;;;;8.75;2.03;;;10.00;99.90;;;;;;5048562;28;20660;-71
2022/11/24 11:49:40;;;;;;;6.10;1.58;;;9.80;99.90;;;;;;5058060;28;20392;-73
2022/11/24 11:52:11;;;;;;;7.28;1.60;;;9.90;99.90;;;;;;5048276;28;20021;-72
2022/11/24 11:55:10;;;;;;;5.47;1.60;;;10.00;99.90;;;;;;5050210;28;20029;-72
2022/11/24 11:57:53;;;;;;;6.30;1.48;;;10.10;99.90;;;;;;5061427;28;20093;-73
2022/11/24 12:00:23;;;;;;;6.03;2.15;;;10.30;99.90;;;;;;5054191;28;20032;-73
2022/11/24 12:02:57;;;;;;;5.45;1.45;;;10.40;99.90;;;;;;5051485;28;20035;-73
2022/11/24 12:05:33;;;;;;;4.43;1.40;;;10.60;99.90;;;;;;5049158;28;20055;-72
2022/11/24 12:08:16;;;;;;;7.47;1.60;;;10.70;99.90;;;;;;5047512;28;20689;-73
2022/11/24 12:11:05;;;;;;;7.20;1.80;;;10.70;99.90;;;;;;5047814;28;20177;-72
2022/11/24 12:13:53;;;;;;;7.95;1.75;;;10.60;99.90;;;;;;5053145;28;20067;-72
2022/11/24 12:16:31;;;;;;;7.55;1.50;;;;;;;;;;5047220;28;20083;-74
2022/11/24 12:19:29;;;;;;;8.60;2.00;;;10.20;99.90;;;;;;5061072;28;20413;-72
2022/11/24 12:22:01;;;;;;;9.15;1.58;;;10.10;99.90;;;;;;5044901;28;20029;-74
2022/11/24 12:25:13;;;;;;;7.07;1.90;;;10.10;99.90;;;;;;5041510;28;20495;-72
2022/11/24 12:28:16;;;;;;;8.73;3.60;;;10.30;99.90;;;;;;5015167;28;20027;-74
2022/11/24 12:31:10;;;;;;;7.63;1.30;;;10.50;99.90;;;;;;5010680;28;20099;-72
2022/11/24 12:33:48;;;;;;;6.47;1.35;;;10.70;99.90;;;;;;5044029;28;20533;-74
2022/11/24 12:36:34;;;;;;;4.10;1.27;;;10.70;99.90;;;;;;5048978;28;20090;-72
2022/11/24 12:39:13;;;;;;;6.38;1.65;;;10.60;99.90;;;;;;5051406;28;20032;-73
2022/11/24 12:41:51;;;;;;;4.57;1.58;;;10.50;99.90;;;;;;5046087;28;20052;-73
2022/11/24 12:44:47;;;;;;;5.07;1.58;;;10.40;99.90;;;;;;5044099;28;20025;-74
2022/11/24 12:47:56;;;;;;;3.58;1.33;;;10.30;99.90;;;;;;5046773;28;20032;-72
2022/11/24 12:50:28;;;;;;;5.90;1.60;;;10.20;99.90;;;;;;5044133;28;20073;-72
2022/11/24 12:53:13;;;;;;;7.85;1.88;;;10.20;99.90;;;;;;5052577;28;20557;-73
2022/11/24 12:55:40;;;;;;;3.63;1.75;;;10.20;99.90;;;;;;5041674;28;20032;-73
2022/11/24 12:58:24;;;;;;;4.85;1.60;;;10.20;99.90;;;;;;5047168;28;20017;-72
2022/11/24 13:01:08;;;;;;;6.22;1.92;;;10.30;99.90;;;;;;5051242;28;20016;-72
2022/11/24 13:04:00;;;;;;;3.55;1.45;;;10.30;99.90;;;;;;5045025;28;20028;-74
2022/11/24 13:06:59;;;;;;;5.35;1.70;;;10.30;99.90;;;;;;5051326;28;20480;-75